Time;durP1;ratioP1;P1;durP2;ratioP2;P2;SDS_P1;SDS_P2;PMS_P1;PMS_P2;Temp;Humidity;BMP_temperature;BMP_pressure;BME280_temperature;BME280_humidity;BME280_pressure;Samples;Min_cycle;Max_cycle;Signal;HPM_P1;HPM_P2
2021/08/08 00:01:36;;;;;;;6.10;5.50;;;;;;;;;;5054809;28;20416;-71
2021/08/08 00:04:03;;;;;;;6.70;6.10;;;;;;;;;;5035407;28;20766;-72
2021/08/08 00:06:29;;;;;;;7.77;6.80;;;;;;;;;;5035156;28;20432;-71
2021/08/08 00:08:55;;;;;;;6.23;5.60;;;;;;;;;;5035185;28;20435;-68
2021/08/08 00:11:21;;;;;;;5.57;5.07;;;;;;;;;;5035101;28;20424;-71
2021/08/08 00:13:47;;;;;;;5.40;4.47;;;;;;;;;;5035053;28;20435;-70
2021/08/08 00:16:13;;;;;;;4.40;4.00;;;;;;;;;;5035672;28;20424;-70
2021/08/08 00:18:39;;;;;;;5.03;3.53;;;;;;;;;;5034690;28;20821;-72
2021/08/08 00:21:06;;;;;;;4.13;3.20;;;;;;;;;;5034927;28;20414;-71
2021/08/08 00:23:32;;;;;;;6.83;3.90;;;;;;;;;;5034462;28;20445;-72
2021/08/08 00:25:58;;;;;;;4.97;3.63;;;;;;;;;;5035084;28;20407;-69
2021/08/08 00:28:24;;;;;;;4.67;4.27;;;;;;;;;;5034532;28;20786;-70
2021/08/08 00:30:50;;;;;;;4.60;3.73;;;;;;;;;;5035195;28;20419;-69
2021/08/08 00:33:17;;;;;;;4.77;4.07;;;;;;;;;;5034636;28;20931;-69
2021/08/08 00:35:43;;;;;;;4.77;4.27;;;;;;;;;;5034838;28;20415;-69
2021/08/08 00:38:12;;;;;;;5.10;4.60;;;;;;;;;;5034509;28;20411;-71
2021/08/08 00:40:39;;;;;;;4.70;4.30;;;;;;;;;;5034964;28;20837;-70
2021/08/08 00:43:08;;;;;;;5.30;4.80;;;;;;;;;;5034984;28;20437;-71
2021/08/08 00:45:34;;;;;;;6.90;4.80;;;;;;;;;;5034736;28;20417;-72
2021/08/08 00:48:00;;;;;;;5.90;5.40;;;;;;;;;;5033931;28;20452;-70
2021/08/08 00:50:26;;;;;;;6.57;4.83;;;;;;;;;;5034401;28;20917;-70
2021/08/08 00:52:52;;;;;;;5.43;5.03;;;;;;;;;;5034333;28;20409;-71
2021/08/08 00:55:18;;;;;;;6.97;5.17;;;;;;;;;;5034365;28;20411;-72
2021/08/08 00:57:44;;;;;;;5.40;4.90;;;;;;;;;;5048097;28;20548;-71
2021/08/08 01:00:10;;;;;;;5.50;4.83;;;;;;;;;;5054247;28;20444;-70
2021/08/08 01:02:38;;;;;;;5.50;4.90;;;;;;;;;;5054131;28;20425;-72
2021/08/08 01:05:10;;;;;;;6.97;4.90;;;;;;;;;;5054246;28;20577;-73
2021/08/08 01:07:40;;;;;;;5.30;4.83;;;;;;;;;;5052645;28;20488;-71
2021/08/08 01:10:08;;;;;;;5.70;5.20;;;;;;;;;;5053939;28;20423;-71
2021/08/08 01:12:34;;;;;;;6.03;5.33;;;;;;;;;;5054168;28;20499;-72
2021/08/08 01:15:00;;;;;;;5.30;4.90;;;;;;;;;;5054069;28;20535;-72
2021/08/08 01:17:27;;;;;;;5.63;5.17;;;;;;;;;;5053350;28;20788;-72
2021/08/08 01:19:59;;;;;;;6.80;5.87;;;;;;;;;;5053654;28;20453;-72
2021/08/08 01:22:29;;;;;;;8.70;6.20;;;;;;;;;;5053685;28;20421;-71
2021/08/08 01:24:56;;;;;;;6.50;5.80;;;;;;;;;;5053623;28;20859;-73
2021/08/08 01:27:22;;;;;;;6.60;5.97;;;;;;;;;;5053357;28;20459;-72
2021/08/08 01:29:49;;;;;;;6.10;5.60;;;;;;;;;;5039588;28;20470;-71
2021/08/08 01:32:15;;;;;;;6.43;5.83;;;;;;;;;;5033586;28;20431;-71
2021/08/08 01:34:41;;;;;;;7.00;6.40;;;;;;;;;;5045773;28;20823;-68
2021/08/08 01:37:07;;;;;;;6.47;5.73;;;;;;;;;;5053253;28;20414;-70
2021/08/08 01:39:34;;;;;;;7.30;6.23;;;;;;;;;;5053536;28;20819;-70
2021/08/08 01:42:03;;;;;;;8.23;6.93;;;;;;;;;;5053349;28;20443;-70
2021/08/08 01:44:31;;;;;;;9.13;7.00;;;;;;;;;;5040555;28;20497;-71
2021/08/08 01:46:58;;;;;;;8.53;7.63;;;;;;;;;;5032877;28;20910;-69
2021/08/08 01:49:25;;;;;;;8.93;7.20;;;;;;;;;;5033201;28;20454;-70
2021/08/08 01:51:53;;;;;;;8.50;7.17;;;;;;;;;;5033190;28;20425;-69
2021/08/08 01:54:19;;;;;;;7.43;6.60;;;;;;;;;;5046021;28;20436;-69
2021/08/08 01:56:46;;;;;;;7.67;6.30;;;;;;;;;;5043671;28;20743;-72
2021/08/08 01:59:13;;;;;;;6.67;6.03;;;;;;;;;;5033302;28;20414;-69
2021/08/08 02:01:39;;;;;;;5.70;5.30;;;;;;;;;;5033572;28;20410;-69
2021/08/08 02:04:18;;;;;;;6.43;5.60;;;;;;;;;;5033087;28;20435;-72
2021/08/08 02:06:44;;;;;;;7.37;6.57;;;;;;;;;;5032875;28;20434;-71
2021/08/08 02:09:10;;;;;;;6.00;5.50;;;;;;;;;;5033101;28;20428;-71
2021/08/08 02:11:36;;;;;;;8.13;6.30;;;;;;;;;;5033374;28;20899;-70
2021/08/08 02:14:03;;;;;;;9.33;5.30;;;;;;;;;;5032976;28;20589;-71
2021/08/08 02:16:29;;;;;;;6.27;5.57;;;;;;;;;;5033021;28;20413;-69
2021/08/08 02:18:55;;;;;;;6.97;4.67;;;;;;;;;;5032488;28;20895;-70
2021/08/08 02:21:20;;;;;;;6.13;5.53;;;;;;;;;;5033128;28;20415;-71
2021/08/08 02:23:46;;;;;;;5.87;4.60;;;;;;;;;;5034361;28;20444;-71
2021/08/08 02:26:12;;;;;;;5.23;4.70;;;;;;;;;;5052648;28;20413;-70
2021/08/08 02:28:38;;;;;;;5.40;4.90;;;;;;;;;;5048106;28;20510;-71
2021/08/08 02:31:04;;;;;;;5.83;5.23;;;;;;;;;;5033125;28;20553;-69
2021/08/08 02:33:30;;;;;;;7.40;5.50;;;;;;;;;;5034615;28;20424;-69
2021/08/08 02:35:56;;;;;;;6.07;4.80;;;;;;;;;;5052863;28;20408;-70
2021/08/08 02:38:24;;;;;;;8.80;4.87;;;;;;;;;;5052214;28;20495;-71
2021/08/08 02:40:50;;;;;;;7.40;5.50;;;;;;;;;;5052868;28;20451;-71
2021/08/08 02:43:16;;;;;;;5.70;5.20;;;;;;;;;;5052836;28;20437;-72
2021/08/08 02:45:42;;;;;;;5.83;5.33;;;;;;;;;;5052912;28;20472;-72
2021/08/08 02:48:08;;;;;;;5.60;4.97;;;;;;;;;;5031001;28;20847;-71
2021/08/08 02:50:34;;;;;;;6.20;5.60;;;;;;;;;;5032651;28;20882;-69
2021/08/08 02:53:00;;;;;;;7.60;5.30;;;;;;;;;;5032818;28;20413;-71
2021/08/08 02:55:26;;;;;;;5.20;4.70;;;;;;;;;;5032951;28;20441;-70
2021/08/08 02:57:52;;;;;;;4.93;4.43;;;;;;;;;;5047781;28;20800;-70
2021/08/08 03:00:18;;;;;;;5.90;5.40;;;;;;;;;;5052612;28;20419;-71
2021/08/08 03:02:44;;;;;;;8.10;5.20;;;;;;;;;;5052472;28;20418;-69
2021/08/08 03:05:11;;;;;;;6.30;5.20;;;;;;;;;;5052621;28;20452;-70
2021/08/08 03:07:37;;;;;;;6.70;4.83;;;;;;;;;;5052064;28;20489;-70
2021/08/08 03:10:04;;;;;;;5.50;5.00;;;;;;;;;;5052411;28;20403;-71
2021/08/08 03:12:30;;;;;;;5.50;5.00;;;;;;;;;;5052256;28;20413;-68
2021/08/08 03:14:56;;;;;;;5.20;4.70;;;;;;;;;;5052592;28;20440;-68
2021/08/08 03:17:22;;;;;;;7.43;4.60;;;;;;;;;;5052130;28;20432;-70
2021/08/08 03:19:48;;;;;;;4.40;4.00;;;;;;;;;;5052487;28;20428;-71
2021/08/08 03:22:14;;;;;;;5.63;4.00;;;;;;;;;;5052356;28;20890;-71
2021/08/08 03:24:42;;;;;;;6.60;4.30;;;;;;;;;;5052206;28;20573;-73
2021/08/08 03:27:08;;;;;;;5.87;4.27;;;;;;;;;;5050613;28;20974;-71
2021/08/08 03:29:34;;;;;;;5.67;4.10;;;;;;;;;;5040630;28;20419;-72
2021/08/08 03:32:00;;;;;;;4.53;4.13;;;;;;;;;;5035287;28;20459;-71
2021/08/08 03:34:26;;;;;;;4.80;4.30;;;;;;;;;;5036008;28;20461;-71
2021/08/08 03:36:52;;;;;;;7.80;5.20;;;;;;;;;;5035329;28;20878;-70
2021/08/08 03:39:21;;;;;;;5.83;5.23;;;;;;;;;;5035728;28;20457;-73
2021/08/08 03:41:47;;;;;;;5.23;4.73;;;;;;;;;;5035689;28;20416;-71
2021/08/08 03:44:13;;;;;;;5.20;4.70;;;;;;;;;;5035707;28;20431;-72
2021/08/08 03:46:39;;;;;;;4.93;4.50;;;;;;;;;;5035127;28;20406;-71
2021/08/08 03:49:05;;;;;;;4.47;3.73;;;;;;;;;;5035595;28;20473;-71
2021/08/08 03:51:31;;;;;;;4.30;3.73;;;;;;;;;;5035717;28;20989;-69
2021/08/08 03:53:57;;;;;;;4.60;3.90;;;;;;;;;;5045535;28;20438;-70
2021/08/08 03:56:23;;;;;;;5.03;4.47;;;;;;;;;;5049330;28;20419;-71
2021/08/08 03:58:49;;;;;;;5.20;4.37;;;;;;;;;;5035165;28;20465;-70
2021/08/08 04:01:15;;;;;;;5.43;4.93;;;;;;;;;;5035187;28;20968;-71
2021/08/08 04:03:41;;;;;;;5.53;3.90;;;;;;;;;;5035587;28;20463;-72
2021/08/08 04:06:06;;;;;;;4.37;3.97;;;;;;;;;;5035349;28;20441;-70
2021/08/08 04:08:32;;;;;;;5.23;4.37;;;;;;;;;;5034935;28;20458;-72
2021/08/08 04:10:59;;;;;;;4.03;3.73;;;;;;;;;;5035067;28;20893;-72
2021/08/08 04:13:25;;;;;;;5.33;4.10;;;;;;;;;;5035294;28;20445;-71
2021/08/08 04:15:51;;;;;;;3.70;3.40;;;;;;;;;;5035276;28;20907;-77
2021/08/08 04:18:17;;;;;;;4.60;3.93;;;;;;;;;;5034863;28;21001;-72
2021/08/08 04:20:43;;;;;;;4.90;4.23;;;;;;;;;;5034926;28;20422;-71
2021/08/08 04:23:12;;;;;;;5.37;3.90;;;;;;;;;;5035001;28;20533;-72
2021/08/08 04:25:39;;;;;;;5.20;3.83;;;;;;;;;;5034828;28;20426;-71
2021/08/08 04:28:06;;;;;;;3.77;3.30;;;;;;;;;;5034541;28;20840;-71
2021/08/08 04:30:33;;;;;;;4.17;3.77;;;;;;;;;;5035137;28;20864;-69
2021/08/08 04:32:59;;;;;;;5.30;3.37;;;;;;;;;;5035123;28;20418;-71
2021/08/08 04:35:25;;;;;;;3.70;3.40;;;;;;;;;;5034666;28;20416;-71
2021/08/08 04:37:51;;;;;;;7.57;3.40;;;;;;;;;;5034423;28;20417;-71
2021/08/08 04:40:17;;;;;;;3.80;3.20;;;;;;;;;;5034826;28;20770;-72
2021/08/08 04:42:43;;;;;;;4.90;3.60;;;;;;;;;;5034455;28;20420;-69
2021/08/08 04:45:09;;;;;;;3.93;3.23;;;;;;;;;;5034305;28;20936;-70
2021/08/08 04:47:35;;;;;;;6.30;4.00;;;;;;;;;;5034069;28;20457;-72
2021/08/08 04:50:01;;;;;;;5.20;3.67;;;;;;;;;;5034341;28;20782;-71
2021/08/08 04:52:33;;;;;;;4.10;3.70;;;;;;;;;;5034573;28;20484;-70
2021/08/08 04:55:00;;;;;;;3.97;3.57;;;;;;;;;;5052554;28;20442;-70
2021/08/08 04:57:26;;;;;;;3.73;3.43;;;;;;;;;;5039090;28;20413;-72
2021/08/08 04:59:52;;;;;;;3.87;3.50;;;;;;;;;;5034712;28;20752;-71
2021/08/08 05:02:21;;;;;;;3.73;3.20;;;;;;;;;;5034494;28;20414;-70
2021/08/08 05:04:48;;;;;;;3.83;3.10;;;;;;;;;;5034246;28;20575;-72
2021/08/08 05:07:14;;;;;;;3.63;3.30;;;;;;;;;;5032490;28;20818;-71
2021/08/08 05:09:40;;;;;;;6.23;3.30;;;;;;;;;;5034176;28;20423;-72
2021/08/08 05:12:09;;;;;;;3.83;3.53;;;;;;;;;;5034322;28;20411;-70
2021/08/08 05:14:38;;;;;;;3.73;2.97;;;;;;;;;;5034208;28;20442;-70
2021/08/08 05:17:04;;;;;;;4.20;3.80;;;;;;;;;;5032222;28;20510;-69
2021/08/08 05:19:30;;;;;;;3.57;3.30;;;;;;;;;;5053447;28;20410;-71
2021/08/08 05:21:56;;;;;;;4.57;3.17;;;;;;;;;;5050428;28;20415;-71
2021/08/08 05:24:23;;;;;;;3.90;3.37;;;;;;;;;;5033779;28;20956;-70
2021/08/08 05:26:49;;;;;;;5.30;4.07;;;;;;;;;;5033236;28;20505;-71
2021/08/08 05:29:15;;;;;;;4.80;3.10;;;;;;;;;;5040048;28;20506;-71
2021/08/08 05:31:41;;;;;;;3.83;3.30;;;;;;;;;;5042730;28;20472;-72
2021/08/08 05:34:07;;;;;;;3.60;3.30;;;;;;;;;;5035243;28;20434;-70
2021/08/08 05:36:33;;;;;;;3.07;2.87;;;;;;;;;;5043634;28;20821;-72
2021/08/08 05:39:00;;;;;;;4.37;3.60;;;;;;;;;;5042293;28;20507;-70
2021/08/08 05:41:26;;;;;;;4.13;3.20;;;;;;;;;;5038410;28;20458;-70
2021/08/08 05:43:53;;;;;;;3.40;3.10;;;;;;;;;;5025744;28;20805;-72
2021/08/08 05:46:19;;;;;;;3.40;3.10;;;;;;;;;;5029109;28;20434;-70
2021/08/08 05:48:45;;;;;;;3.83;3.07;;;;;;;;;;5029289;28;20467;-71
2021/08/08 05:51:11;;;;;;;4.43;3.50;;;;;;;;;;5029782;28;20852;-69
2021/08/08 05:53:37;;;;;;;3.80;3.43;;;;;;;;;;5029078;28;20470;-71
2021/08/08 05:56:03;;;;;;;4.63;4.23;;;;;;;;;;5030209;28;20451;-71
2021/08/08 05:58:29;;;;;;;4.50;4.10;;;;;;;;;;5049091;28;20515;-70
2021/08/08 06:00:55;;;;;;;4.33;3.70;;;;;;;;;;5040324;28;20885;-69
2021/08/08 06:03:21;;;;;;;4.30;3.90;;;;;;;;;;5029539;28;20439;-69
2021/08/08 06:05:47;;;;;;;4.07;3.57;;;;;;;;;;5030378;28;20437;-69
2021/08/08 06:08:13;;;;;;;6.10;5.50;;;;;;;;;;5049088;28;20502;-71
2021/08/08 06:10:39;;;;;;;5.73;5.10;;;;;;;;;;5049555;28;20504;-69
2021/08/08 06:13:05;;;;;;;5.27;4.87;;;;;;;;;;5049501;28;20877;-71
2021/08/08 06:15:32;;;;;;;4.57;4.17;;;;;;;;;;5049289;28;20497;-72
2021/08/08 06:17:58;;;;;;;4.27;3.97;;;;;;;;;;5048930;28;20451;-69
2021/08/08 06:20:24;;;;;;;5.63;4.60;;;;;;;;;;5049219;28;20458;-71
2021/08/08 06:22:50;;;;;;;4.80;4.30;;;;;;;;;;5047848;28;20525;-70
2021/08/08 06:25:16;;;;;;;4.90;4.50;;;;;;;;;;5049264;28;20412;-69
2021/08/08 06:27:42;;;;;;;4.67;4.27;;;;;;;;;;5048924;28;20930;-69
2021/08/08 06:30:09;;;;;;;4.80;4.40;;;;;;;;;;5032305;28;20426;-71
2021/08/08 06:32:35;;;;;;;5.30;4.57;;;;;;;;;;5029390;28;20411;-71
2021/08/08 06:35:01;;;;;;;5.27;4.63;;;;;;;;;;5029175;28;20930;-70
2021/08/08 06:37:27;;;;;;;5.93;4.20;;;;;;;;;;5036411;28;20780;-71
2021/08/08 06:39:53;;;;;;;5.37;4.97;;;;;;;;;;5049012;28;20449;-70
2021/08/08 06:42:19;;;;;;;6.50;5.10;;;;;;;;;;5048995;28;20506;-72
2021/08/08 06:44:45;;;;;;;6.03;5.33;;;;;;;;;;5047459;28;20946;-70
2021/08/08 06:47:11;;;;;;;5.57;5.17;;;;;;;;;;5044695;28;20473;-69
2021/08/08 06:49:37;;;;;;;5.70;5.20;;;;;;;;;;5024972;28;20419;-69
2021/08/08 06:52:03;;;;;;;6.00;5.50;;;;;;;;;;5028908;28;20421;-71
2021/08/08 06:54:29;;;;;;;5.43;4.90;;;;;;;;;;5028908;28;20517;-71
2021/08/08 06:56:55;;;;;;;5.73;5.30;;;;;;;;;;5028635;28;20421;-71
2021/08/08 06:59:21;;;;;;;5.10;4.70;;;;;;;;;;5027855;28;21141;-71
2021/08/08 07:01:47;;;;;;;5.50;5.00;;;;;;;;;;5028924;28;20418;-72
2021/08/08 07:04:14;;;;;;;6.57;5.70;;;;;;;;;;5028693;28;20437;-71
2021/08/08 07:06:40;;;;;;;5.80;5.20;;;;;;;;;;5030941;28;20496;-71
2021/08/08 07:09:07;;;;;;;6.27;5.77;;;;;;;;;;5032478;28;20828;-70
2021/08/08 07:11:34;;;;;;;5.50;5.10;;;;;;;;;;5032586;28;20422;-70
2021/08/08 07:14:01;;;;;;;6.37;5.83;;;;;;;;;;5032248;28;20433;-71
2021/08/08 07:16:27;;;;;;;5.87;5.33;;;;;;;;;;5032430;28;20904;-71
2021/08/08 07:18:53;;;;;;;5.90;5.40;;;;;;;;;;5032037;28;20425;-71
2021/08/08 07:21:19;;;;;;;6.83;6.30;;;;;;;;;;5032497;28;20825;-70
2021/08/08 07:23:45;;;;;;;7.10;6.40;;;;;;;;;;5032263;28;20586;-72
2021/08/08 07:26:11;;;;;;;7.20;6.40;;;;;;;;;;5032163;28;20414;-70
2021/08/08 07:28:37;;;;;;;7.00;6.50;;;;;;;;;;5031787;28;20583;-72
2021/08/08 07:31:03;;;;;;;9.93;7.47;;;;;;;;;;5032211;28;20529;-71
2021/08/08 07:33:29;;;;;;;7.20;6.60;;;;;;;;;;5032221;28;20511;-70
2021/08/08 07:35:55;;;;;;;7.90;7.30;;;;;;;;;;5032530;28;20495;-69
2021/08/08 07:38:21;;;;;;;7.03;6.10;;;;;;;;;;5031524;28;20528;-69
2021/08/08 07:40:47;;;;;;;7.43;6.70;;;;;;;;;;5032191;28;20417;-69
2021/08/08 07:43:13;;;;;;;7.97;7.17;;;;;;;;;;5032088;28;20977;-72
2021/08/08 07:45:39;;;;;;;9.47;6.90;;;;;;;;;;5032244;28;20422;-70
2021/08/08 07:48:05;;;;;;;7.70;7.10;;;;;;;;;;5031278;28;20532;-69
2021/08/08 07:50:31;;;;;;;7.07;6.47;;;;;;;;;;5032243;28;20785;-70
2021/08/08 07:52:57;;;;;;;7.73;7.13;;;;;;;;;;5031969;28;20420;-70
2021/08/08 07:55:24;;;;;;;8.40;7.70;;;;;;;;;;5031833;28;20417;-69
2021/08/08 07:57:50;;;;;;;8.97;7.37;;;;;;;;;;5046521;28;20424;-71
2021/08/08 08:00:16;;;;;;;7.27;6.57;;;;;;;;;;5051713;28;20981;-70
2021/08/08 08:02:42;;;;;;;9.00;7.93;;;;;;;;;;5051678;28;20466;-70
2021/08/08 08:05:08;;;;;;;11.30;10.17;;;;;;;;;;5031784;28;20529;-71
2021/08/08 08:07:35;;;;;;;12.80;11.47;;;;;;;;;;5031250;28;20471;-69
2021/08/08 08:10:01;;;;;;;10.93;9.83;;;;;;;;;;5031501;28;20415;-69
2021/08/08 08:12:27;;;;;;;11.50;10.20;;;;;;;;;;5031720;28;20455;-69
2021/08/08 08:14:53;;;;;;;11.00;9.50;;;;;;;;;;5031520;28;20904;-69
2021/08/08 08:17:19;;;;;;;13.87;10.43;;;;;;;;;;5030774;28;20963;-70
2021/08/08 08:19:45;;;;;;;11.90;9.90;;;;;;;;;;5031404;28;20506;-69
2021/08/08 08:22:15;;;;;;;9.97;9.00;;;;;;;;;;5031204;28;20419;-69
2021/08/08 08:24:42;;;;;;;11.67;10.00;;;;;;;;;;5031709;28;20451;-68
2021/08/08 08:27:08;;;;;;;11.63;9.80;;;;;;;;;;5030991;28;20458;-68
2021/08/08 08:29:34;;;;;;;10.87;9.77;;;;;;;;;;5031282;28;20876;-68
2021/08/08 08:32:00;;;;;;;12.23;11.03;;;;;;;;;;5031129;28;20418;-70
2021/08/08 08:34:26;;;;;;;10.70;9.60;;;;;;;;;;5030845;28;20794;-69
2021/08/08 08:36:51;;;;;;;11.10;9.67;;;;;;;;;;5033549;28;20441;-69
2021/08/08 08:39:18;;;;;;;10.83;9.70;;;;;;;;;;5050855;28;20459;-70
2021/08/08 08:41:44;;;;;;;11.50;9.20;;;;;;;;;;5050893;28;20419;-71
2021/08/08 08:44:10;;;;;;;11.00;9.87;;;;;;;;;;5050714;28;20434;-69
2021/08/08 08:46:37;;;;;;;12.37;9.47;;;;;;;;;;5050415;28;20985;-70
2021/08/08 08:49:03;;;;;;;9.17;8.37;;;;;;;;;;5031414;28;20464;-70
2021/08/08 08:51:35;;;;;;;11.03;9.33;;;;;;;;;;5030936;28;20809;-70
2021/08/08 08:54:01;;;;;;;9.03;8.17;;;;;;;;;;5030828;28;20477;-68
2021/08/08 08:56:28;;;;;;;9.23;8.33;;;;;;;;;;5034102;28;20509;-70
2021/08/08 08:58:54;;;;;;;9.60;8.60;;;;;;;;;;5050288;28;20455;-71
2021/08/08 09:01:20;;;;;;;9.10;8.20;;;;;;;;;;5050530;28;20896;-70
2021/08/08 09:03:49;;;;;;;10.70;8.47;;;;;;;;;;5050552;28;20445;-69
2021/08/08 09:06:15;;;;;;;9.23;8.43;;;;;;;;;;5048581;28;20484;-71
2021/08/08 09:08:41;;;;;;;9.93;8.93;;;;;;;;;;5049948;28;20501;-69
2021/08/08 09:11:08;;;;;;;11.30;9.00;;;;;;;;;;5050325;28;20418;-70
2021/08/08 09:13:48;;;;;;;8.50;7.53;;;;;;;;;;5049087;28;20441;-71
2021/08/08 09:16:14;;;;;;;8.57;7.70;;;;;;;;;;5047921;28;20530;-70
2021/08/08 09:18:48;;;;;;;11.20;9.37;;;;;;;;;;5029937;28;20420;-72
2021/08/08 09:21:14;;;;;;;9.50;8.10;;;;;;;;;;5030450;28;20433;-71
2021/08/08 09:23:40;;;;;;;9.90;8.83;;;;;;;;;;5030238;28;20806;-72
2021/08/08 09:26:06;;;;;;;10.80;8.60;;;;;;;;;;5029417;28;20972;-70
2021/08/08 09:28:32;;;;;;;10.10;9.10;;;;;;;;;;5027346;28;21020;-71
2021/08/08 09:30:59;;;;;;;10.87;9.03;;;;;;;;;;5030151;28;20798;-69
2021/08/08 09:33:25;;;;;;;13.97;10.30;;;;;;;;;;5029800;28;20880;-71
2021/08/08 09:35:53;;;;;;;12.70;10.83;;;;;;;;;;5030013;28;20450;-69
2021/08/08 09:38:20;;;;;;;14.50;10.37;;;;;;;;;;5043888;28;20421;-69
2021/08/08 09:40:55;;;;;;;12.63;10.83;;;;;;;;;;5049959;28;20479;-72
2021/08/08 09:43:24;;;;;;;14.43;11.30;;;;;;;;;;5049913;28;20459;-70
2021/08/08 09:45:50;;;;;;;17.37;11.67;;;;;;;;;;5049730;28;20430;-70
2021/08/08 09:48:16;;;;;;;13.53;11.77;;;;;;;;;;5026643;28;20503;-70
2021/08/08 09:50:44;;;;;;;15.37;11.00;;;;;;;;;;5029556;28;20505;-70
2021/08/08 09:53:19;;;;;;;13.67;11.33;;;;;;;;;;5029743;28;20439;-68
2021/08/08 09:55:46;;;;;;;21.00;12.27;;;;;;;;;;5029058;28;20829;-70
2021/08/08 09:58:12;;;;;;;16.63;11.43;;;;;;;;;;5028854;28;20423;-70
2021/08/08 10:00:40;;;;;;;14.57;11.30;;;;;;;;;;5029314;28;20773;-70
2021/08/08 10:03:07;;;;;;;19.43;11.63;;;;;;;;;;5029379;28;21443;-70
2021/08/08 10:05:34;;;;;;;14.70;11.40;;;;;;;;;;5028844;28;20435;-70
2021/08/08 10:08:06;;;;;;;13.30;11.67;;;;;;;;;;5027641;28;20462;-70
2021/08/08 10:10:33;;;;;;;15.93;11.17;;;;;;;;;;5029266;28;20570;-70
2021/08/08 10:13:12;;;;;;;17.83;11.37;;;;;;;;;;5029204;28;20444;-70
2021/08/08 10:15:50;;;;;;;16.80;11.30;;;;;;;;;;5029468;28;20822;-69
2021/08/08 10:18:17;;;;;;;14.20;10.30;;;;;;;;;;5028859;28;20450;-71
2021/08/08 10:20:43;;;;;;;11.90;9.93;;;;;;;;;;5029115;28;20446;-70
2021/08/08 10:23:16;;;;;;;12.60;10.73;;;;;;;;;;5029184;28;20466;-70
2021/08/08 10:25:47;;;;;;;20.30;11.83;;;;;;;;;;5029348;28;20429;-70
2021/08/08 10:28:13;;;;;;;11.73;10.40;;;;;;;;;;5020420;28;20463;-69
2021/08/08 10:30:39;;;;;;;15.53;10.80;;;;;;;;;;5029177;28;20498;-70
2021/08/08 10:33:06;;;;;;;11.70;10.20;;;;;;;;;;5029243;28;20428;-70
2021/08/08 10:35:37;;;;;;;12.07;9.97;;;;;;;;;;5029153;28;20539;-71
2021/08/08 10:38:03;;;;;;;15.07;9.27;;;;;;;;;;5028831;28;20417;-70
2021/08/08 10:40:32;;;;;;;10.03;8.10;;;;;;;;;;5031281;28;20416;-69
2021/08/08 10:42:58;;;;;;;9.43;8.30;;;;;;;;;;5033100;28;20901;-70
2021/08/08 10:45:25;;;;;;;10.10;7.40;;;;;;;;;;5032909;28;20966;-70
2021/08/08 10:48:04;;;;;;;7.83;7.03;;;;;;;;;;5035664;28;20961;-70
2021/08/08 10:50:38;;;;;;;8.80;7.10;;;;;;;;;;5030256;28;20431;-71
2021/08/08 10:53:04;;;;;;;8.50;6.70;;;;;;;;;;5032478;28;20424;-70
2021/08/08 10:55:31;;;;;;;8.87;7.53;;;;;;;;;;5031238;28;20439;-72
2021/08/08 10:57:59;;;;;;;7.53;6.40;;;;;;;;;;5032137;28;20408;-71
2021/08/08 11:00:33;;;;;;;7.30;6.50;;;;;;;;;;5032579;28;20427;-70
2021/08/08 11:03:09;;;;;;;6.80;6.20;;;;;;;;;;5032497;28;20785;-69
2021/08/08 11:05:35;;;;;;;10.20;6.87;;;;;;;;;;5032579;28;20438;-71
2021/08/08 11:08:02;;;;;;;11.20;6.33;;;;;;;;;;5032001;28;20467;-70
2021/08/08 11:10:29;;;;;;;7.60;6.00;;;;;;;;;;5032356;28;20416;-72
2021/08/08 11:12:55;;;;;;;7.53;6.40;;;;;;;;;;5032336;28;20423;-71
2021/08/08 11:15:33;;;;;;;6.80;6.00;;;;;;;;;;5032461;28;20426;-72
2021/08/08 11:18:00;;;;;;;10.57;7.07;;;;;;;;;;5031908;28;20419;-69
2021/08/08 11:20:29;;;;;;;7.97;6.90;;;;;;;;;;5030442;28;20836;-70
2021/08/08 11:22:56;;;;;;;8.40;7.20;;;;;;;;;;5032216;28;20416;-71
2021/08/08 11:25:23;;;;;;;8.50;6.77;;;;;;;;;;5032292;28;20975;-69
2021/08/08 11:27:53;;;;;;;9.23;7.07;;;;;;;;;;5031767;28;20511;-70
2021/08/08 11:30:19;;;;;;;9.10;6.37;;;;;;;;;;5031856;28;20425;-70
2021/08/08 11:32:47;;;;;;;7.00;6.33;;;;;;;;;;5032089;28;20408;-71
2021/08/08 11:35:17;;;;;;;8.90;5.80;;;;;;;;;;5032158;28;20408;-71
2021/08/08 11:37:50;;;;;;;7.53;6.30;;;;;;;;;;5034231;28;20974;-71
2021/08/08 11:40:18;;;;;;;6.27;5.67;;;;;;;;;;5032316;28;20827;-68
2021/08/08 11:42:44;;;;;;;7.63;6.20;;;;;;;;;;5032209;28;20420;-70
2021/08/08 11:45:10;;;;;;;6.93;6.07;;;;;;;;;;5032034;28;20441;-69
2021/08/08 11:47:36;;;;;;;7.40;5.70;;;;;;;;;;5031423;28;20521;-70
2021/08/08 11:50:05;;;;;;;4.63;4.33;;;;;;;;;;5032122;28;20416;-69
2021/08/08 11:52:32;;;;;;;6.73;4.97;;;;;;;;;;5030898;28;20436;-70
2021/08/08 11:54:59;;;;;;;6.30;4.80;;;;;;;;;;5031750;28;20436;-70
2021/08/08 11:57:27;;;;;;;6.40;4.70;;;;;;;;;;5031583;28;20428;-69
2021/08/08 11:59:53;;;;;;;6.70;5.53;;;;;;;;;;5031905;28;20464;-72
2021/08/08 12:02:19;;;;;;;5.30;4.80;;;;;;;;;;5031633;28;20451;-72
2021/08/08 12:04:45;;;;;;;5.40;4.90;;;;;;;;;;5031479;28;20442;-71
2021/08/08 12:07:11;;;;;;;5.40;4.70;;;;;;;;;;5030966;28;20513;-71
2021/08/08 12:09:45;;;;;;;7.57;5.00;;;;;;;;;;5040226;28;20428;-72
2021/08/08 12:12:11;;;;;;;7.97;5.57;;;;;;;;;;5031444;28;20420;-70
2021/08/08 12:14:43;;;;;;;5.50;4.47;;;;;;;;;;5031267;28;20437;-72
2021/08/08 12:17:14;;;;;;;5.60;4.77;;;;;;;;;;5030993;28;20417;-71
2021/08/08 12:19:49;;;;;;;7.53;5.73;;;;;;;;;;5030122;28;20547;-71
2021/08/08 12:22:20;;;;;;;6.10;5.60;;;;;;;;;;5027842;28;20761;-71
2021/08/08 12:24:50;;;;;;;5.50;5.00;;;;;;;;;;5031289;28;20441;-72
2021/08/08 12:27:18;;;;;;;8.43;4.87;;;;;;;;;;5030791;28;20409;-72
2021/08/08 12:29:46;;;;;;;7.53;4.70;;;;;;;;;;5031309;28;20443;-71
2021/08/08 12:32:16;;;;;;;10.20;4.83;;;;;;;;;;5031070;28;20880;-71
2021/08/08 12:34:45;;;;;;;5.60;4.70;;;;;;;;;;5030858;28;20471;-70
2021/08/08 12:37:13;;;;;;;8.83;4.27;;;;;;;;;;5030654;28;20412;-69
2021/08/08 12:39:41;;;;;;;5.77;4.50;;;;;;;;;;5030915;28;20432;-72
2021/08/08 12:42:17;;;;;;;4.37;3.83;;;;;;;;;;5030933;28;20439;-72
2021/08/08 12:44:43;;;;;;;5.33;4.80;;;;;;;;;;5029269;28;20448;-71
2021/08/08 12:47:10;;;;;;;5.57;4.00;;;;;;;;;;5033662;28;20420;-73
2021/08/08 12:49:37;;;;;;;7.70;4.43;;;;;;;;;;5030153;28;20420;-72
2021/08/08 12:52:04;;;;;;;3.73;3.43;;;;;;;;;;5030849;28;20543;-70
2021/08/08 12:54:31;;;;;;;6.00;3.50;;;;;;;;;;5030511;28;21181;-69
2021/08/08 12:56:57;;;;;;;4.40;3.60;;;;;;;;;;5030300;28;20809;-70
2021/08/08 12:59:23;;;;;;;4.03;3.47;;;;;;;;;;5030476;28;20979;-70
2021/08/08 13:01:49;;;;;;;4.30;3.90;;;;;;;;;;5030565;28;20773;-68
2021/08/08 13:04:15;;;;;;;7.50;4.03;;;;;;;;;;5030192;28;20849;-71
2021/08/08 13:06:41;;;;;;;4.57;3.30;;;;;;;;;;5029850;28;20468;-69
2021/08/08 13:09:07;;;;;;;4.00;3.03;;;;;;;;;;5030143;28;20491;-70
2021/08/08 13:11:33;;;;;;;5.67;3.90;;;;;;;;;;5030442;28;20440;-71
2021/08/08 13:13:59;;;;;;;5.63;4.87;;;;;;;;;;5030097;28;20432;-70
2021/08/08 13:16:25;;;;;;;6.80;3.90;;;;;;;;;;5030104;28;20416;-70
2021/08/08 13:18:51;;;;;;;5.40;4.80;;;;;;;;;;5029800;28;20779;-71
2021/08/08 13:21:17;;;;;;;6.20;5.10;;;;;;;;;;5030190;28;20431;-70
2021/08/08 13:23:44;;;;;;;7.63;5.03;;;;;;;;;;5029954;28;20464;-72
2021/08/08 13:26:10;;;;;;;7.53;4.40;;;;;;;;;;5030107;28;20470;-72
2021/08/08 13:28:36;;;;;;;5.23;4.70;;;;;;;;;;5029572;28;20547;-70
2021/08/08 13:31:02;;;;;;;5.60;4.40;;;;;;;;;;5029985;28;20446;-69
2021/08/08 13:33:30;;;;;;;5.60;4.50;;;;;;;;;;5029921;28;20428;-73
2021/08/08 13:35:56;;;;;;;9.03;5.07;;;;;;;;;;5030125;28;20902;-72
2021/08/08 13:38:22;;;;;;;7.20;5.73;;;;;;;;;;5029416;28;20466;-71
2021/08/08 13:40:48;;;;;;;5.00;4.50;;;;;;;;;;5029731;28;20467;-71
2021/08/08 13:43:14;;;;;;;7.10;4.90;;;;;;;;;;5029701;28;20436;-69
2021/08/08 13:45:40;;;;;;;6.57;4.40;;;;;;;;;;5029666;28;20419;-71
2021/08/08 13:48:06;;;;;;;5.67;5.10;;;;;;;;;;5032515;28;20983;-70
2021/08/08 13:50:32;;;;;;;5.37;4.87;;;;;;;;;;5029513;28;20420;-73
2021/08/08 13:52:58;;;;;;;8.43;5.83;;;;;;;;;;5029586;28;20447;-72
2021/08/08 13:55:25;;;;;;;6.73;6.13;;;;;;;;;;5029609;28;20413;-70
2021/08/08 13:57:51;;;;;;;7.27;6.47;;;;;;;;;;5029255;28;20447;-73
2021/08/08 14:00:18;;;;;;;9.37;5.80;;;;;;;;;;5029573;28;20736;-71
2021/08/08 14:02:44;;;;;;;7.30;6.20;;;;;;;;;;5029553;28;20917;-72
2021/08/08 14:05:11;;;;;;;9.20;6.37;;;;;;;;;;5029437;28;21174;-70
2021/08/08 14:07:37;;;;;;;9.53;7.10;;;;;;;;;;5029445;28;20464;-69
2021/08/08 14:10:04;;;;;;;9.93;7.27;;;;;;;;;;5029317;28;20420;-71
2021/08/08 14:12:30;;;;;;;9.73;6.67;;;;;;;;;;5029374;28;20417;-71
2021/08/08 14:14:56;;;;;;;9.07;7.20;;;;;;;;;;5028708;28;20612;-70
2021/08/08 14:17:22;;;;;;;10.57;6.90;;;;;;;;;;5029190;28;20893;-72
2021/08/08 14:19:48;;;;;;;7.33;6.10;;;;;;;;;;5029234;28;20416;-70
2021/08/08 14:22:14;;;;;;;6.53;5.80;;;;;;;;;;5029261;28;20426;-74
2021/08/08 14:24:40;;;;;;;9.27;6.80;;;;;;;;;;5029113;28;20912;-71
2021/08/08 14:27:06;;;;;;;8.87;5.80;;;;;;;;;;5028692;28;20502;-71
2021/08/08 14:29:33;;;;;;;12.93;9.80;;;;;;;;;;5029021;28;20456;-71
2021/08/08 14:31:58;;;;;;;10.03;5.70;;;;;;;;;;5027870;28;20452;-70
2021/08/08 14:34:25;;;;;;;7.03;5.10;;;;;;;;;;5026009;28;20464;-74
2021/08/08 14:36:50;;;;;;;9.23;5.47;;;;;;;;;;5028999;28;20405;-71
2021/08/08 14:39:17;;;;;;;6.40;4.13;;;;;;;;;;5029118;28;20962;-73